首页
METAR-TAF:

METAR-TAF

机场 :

楚克國際機場

維諾, 密克罗尼西亚群岛

纬度: 07-28N, 经度: 151-51E, 海拔: 3米

当前天气观测

该预报发布于44分钟前的16:53 UTC
风速8节,风向
温度 28°C
湿度 84%
气压 1007 hPa
能見度: 24.1公里
少量云层高于1400英尺
多云层高于28000英尺

METAR: PTKK 121653Z 01008KT 15SM FEW014 BKN280 28/25 A2975 RMK SLP078 T02820246

时间: 03:37 (17:37 UTC)

预报

该预报发布于5小时和58分钟前的11:39 UTC
预报有效从12日的 12点(UTC)到 13日的 12点(UTC)
风速9节,风向东北
能見度: 10公里
少量云层高于1500英尺
散云层高于12000英尺

TAF: PTKK 121139Z 1212/1312 05009KT P6SM FEW015 SCT120

超过4000个机场的气象观测和天气预报(METAR&TAF报告)。

可查询的气象台以黄色和红色小点在地图上表示。

将鼠标移到小点上方,可查看气象台名称。

然后点击查看天气观测和预报。

如需切换地图:点击带黑十字的绿色按钮放大地图;点击带横线的绿色按钮缩小地图;或者点击绿色箭头查看邻近地区的地图。


METAR-TAF: